Time;durP1;ratioP1;P1;durP2;ratioP2;P2;SDS_P1;SDS_P2;PMS_P1;PMS_P2;Temp;Humidity;BMP_temperature;BMP_pressure;BME280_temperature;BME280_humidity;BME280_pressure;Samples;Min_cycle;Max_cycle;Signal;HPM_P1;HPM_P2
2021/11/27 00:01:55;;;;;;;;;;;;;;;16.16;64.20;99568.22;5056425;28;2013;-72
2021/11/27 00:04:22;;;;;;;;;;;;;;;16.18;64.91;99574.25;5057111;28;1064;-72
2021/11/27 00:06:48;;;;;;;;;;;;;;;16.17;64.67;99575.22;5056659;28;1098;-72
2021/11/27 00:09:14;;;;;;;;;;;;;;;16.19;64.82;99588.41;5056887;28;976;-71
2021/11/27 00:11:42;;;;;;;;;;;;;;;16.16;64.63;99592.22;5055904;28;1123;-71
2021/11/27 00:14:11;;;;;;;;;;;;;;;16.15;64.89;99593.19;5056861;28;1011;-71
2021/11/27 00:16:37;;;;;;;;;;;;;;;16.19;64.15;99597.25;5056548;28;1226;-72
2021/11/27 00:19:04;;;;;;;;;;;;;;;16.17;64.42;99598.38;5056708;28;1015;-63
2021/11/27 00:21:31;;;;;;;;;;;;;;;16.16;64.27;99589.56;5056316;28;1902;-63
2021/11/27 00:23:58;;;;;;;;;;;;;;;16.15;64.43;99598.53;5056421;28;1043;-71
2021/11/27 00:26:24;;;;;;;;;;;;;;;16.17;65.21;99612.56;5056349;28;1024;-63
2021/11/27 00:28:52;;;;;;;;;;;;;;;16.17;64.98;99587.72;5056260;28;1129;-63
2021/11/27 00:31:20;;;;;;;;;;;;;;;16.14;64.14;99580.84;5056493;28;964;-63
2021/11/27 00:33:47;;;;;;;;;;;;;;;16.15;64.32;99569.19;5056168;28;926;-71
2021/11/27 00:36:14;;;;;;;;;;;;;;;16.15;65.15;99560.34;5056374;28;1071;-71
2021/11/27 00:38:41;;;;;;;;;;;;;;;16.14;64.44;99546.19;5056650;28;968;-71
2021/11/27 00:41:07;;;;;;;;;;;;;;;16.13;64.11;99559.66;5056295;28;1906;-71
2021/11/27 00:43:34;;;;;;;;;;;;;;;16.15;64.30;99561.19;5056148;28;1039;-72
2021/11/27 00:46:02;;;;;;;;;;;;;;;16.12;64.30;99561.50;5056040;28;1086;-72
2021/11/27 00:48:29;;;;;;;;;;;;;;;16.12;64.60;99566.00;5056227;28;1127;-63
2021/11/27 00:50:56;;;;;;;;;;;;;;;16.12;63.88;99566.81;5056144;28;1015;-63
2021/11/27 00:53:23;;;;;;;;;;;;;;;16.13;64.46;99565.81;5055788;28;1479;-63
2021/11/27 00:55:50;;;;;;;;;;;;;;;16.13;63.97;99565.00;5055637;28;1028;-72
2021/11/27 00:58:16;;;;;;;;;;;;;;;16.10;64.25;99558.13;5055647;28;1028;-63
2021/11/27 01:00:45;;;;;;;;;;;;;;;16.11;65.02;99565.13;5055527;28;1902;-64
2021/11/27 01:03:14;;;;;;;;;;;;;;;16.10;64.58;99547.47;5055690;28;1365;-63
2021/11/27 01:05:42;;;;;;;;;;;;;;;16.07;64.49;99542.41;5055628;28;1083;-72
2021/11/27 01:08:09;;;;;;;;;;;;;;;16.09;64.40;99557.31;5055652;28;1039;-63
2021/11/27 01:10:38;;;;;;;;;;;;;;;16.08;64.51;99562.78;5055523;28;1099;-63
2021/11/27 01:13:05;;;;;;;;;;;;;;;16.05;64.33;99539.06;5055413;28;1200;-71
2021/11/27 01:15:33;;;;;;;;;;;;;;;16.07;64.21;99547.75;5055648;28;961;-71
2021/11/27 01:18:02;;;;;;;;;;;;;;;16.05;64.04;99544.38;5055651;28;1143;-63
2021/11/27 01:20:31;;;;;;;;;;;;;;;16.08;64.23;99549.44;5055432;28;1902;-71
2021/11/27 01:22:58;;;;;;;;;;;;;;;16.05;64.07;99545.22;5054664;28;1044;-71
2021/11/27 01:25:25;;;;;;;;;;;;;;;16.07;64.49;99542.41;5055535;28;1027;-63
2021/11/27 01:27:51;;;;;;;;;;;;;;;16.06;64.65;99540.75;5055242;28;1000;-63
2021/11/27 01:30:18;;;;;;;;;;;;;;;16.05;64.21;99539.88;5055087;28;1009;-64
2021/11/27 01:32:46;;;;;;;;;;;;;;;16.05;64.03;99531.88;5055388;28;1085;-71
2021/11/27 01:35:12;;;;;;;;;;;;;;;16.06;64.47;99517.56;5055048;28;1099;-63
2021/11/27 01:37:40;;;;;;;;;;;;;;;16.07;64.95;99531.75;5055069;28;1083;-72
2021/11/27 01:40:08;;;;;;;;;;;;;;;16.03;64.02;99535.69;5054903;28;1983;-63
2021/11/27 01:42:35;;;;;;;;;;;;;;;16.02;64.14;99528.69;5054965;28;1083;-72
2021/11/27 01:45:01;;;;;;;;;;;;;;;16.05;64.75;99544.38;5055113;28;974;-72
2021/11/27 01:47:28;;;;;;;;;;;;;;;16.02;64.19;99566.84;5055441;28;1004;-71
2021/11/27 01:49:54;;;;;;;;;;;;;;;16.04;64.05;99537.38;5054784;28;1072;-71
2021/11/27 01:52:21;;;;;;;;;;;;;;;16.03;64.48;99557.03;5054768;28;1044;-63
2021/11/27 01:54:49;;;;;;;;;;;;;;;16.03;64.20;99547.19;5054914;28;494;-71
2021/11/27 01:57:15;;;;;;;;;;;;;;;16.03;63.82;99554.34;5054736;28;1004;-63
2021/11/27 01:59:43;;;;;;;;;;;;;;;16.03;63.90;99549.03;5054977;28;974;-63
2021/11/27 02:02:10;;;;;;;;;;;;;;;16.01;64.56;99561.66;5054433;28;1968;-72
2021/11/27 02:04:37;;;;;;;;;;;;;;;16.02;64.62;99576.69;5054599;28;1070;-63
2021/11/27 02:07:04;;;;;;;;;;;;;;;16.00;64.12;99571.50;5054574;28;1277;-72
2021/11/27 02:09:32;;;;;;;;;;;;;;;16.01;64.43;99562.50;5054952;28;1041;-72
2021/11/27 02:12:01;;;;;;;;;;;;;;;16.01;64.04;99569.66;5054527;28;1126;-72
2021/11/27 02:14:27;;;;;;;;;;;;;;;16.00;65.46;99573.34;5054816;28;1009;-63
2021/11/27 02:16:54;;;;;;;;;;;;;;;15.98;64.26;99576.13;5054811;28;960;-63
2021/11/27 02:19:21;;;;;;;;;;;;;;;15.99;64.29;99577.78;5054749;28;971;-63
2021/11/27 02:21:49;;;;;;;;;;;;;;;16.01;64.06;99591.00;5054614;28;2046;-71
2021/11/27 02:24:17;;;;;;;;;;;;;;;16.00;63.95;99584.00;5055125;28;953;-72
2021/11/27 02:26:44;;;;;;;;;;;;;;;15.97;63.94;99563.78;5054405;28;1096;-63
2021/11/27 02:29:12;;;;;;;;;;;;;;;15.96;64.34;99545.28;5054987;28;1049;-63
2021/11/27 02:31:39;;;;;;;;;;;;;;;15.98;63.98;99565.47;5054297;28;1044;-71
2021/11/27 02:34:06;;;;;;;;;;;;;;;15.94;64.89;99553.41;5056236;28;991;-72
2021/11/27 02:36:33;;;;;;;;;;;;;;;15.98;64.52;99564.63;5058443;28;931;-63
2021/11/27 02:39:01;;;;;;;;;;;;;;;15.95;64.92;99554.25;5058664;28;1053;-71
2021/11/27 02:41:28;;;;;;;;;;;;;;;15.95;64.71;99543.59;5058289;28;1898;-63
2021/11/27 02:43:54;;;;;;;;;;;;;;;15.94;64.43;99557.91;5058419;28;954;-72
2021/11/27 02:46:21;;;;;;;;;;;;;;;15.95;63.88;99535.59;5058537;28;1054;-72
2021/11/27 02:48:47;;;;;;;;;;;;;;;15.95;64.08;99530.25;5058178;28;1021;-63
2021/11/27 02:51:14;;;;;;;;;;;;;;;15.94;64.40;99529.41;5058478;28;1039;-63
2021/11/27 02:53:40;;;;;;;;;;;;;;;15.95;63.94;99530.25;5058110;28;1076;-71
2021/11/27 02:56:08;;;;;;;;;;;;;;;15.96;64.29;99540.78;5057906;28;1033;-63
2021/11/27 02:58:35;;;;;;;;;;;;;;;15.91;64.76;99527.88;5058002;28;1040;-64
2021/11/27 03:01:03;;;;;;;;;;;;;;;15.94;64.94;99531.25;5059216;28;1987;-71
2021/11/27 03:03:29;;;;;;;;;;;;;;;15.94;63.72;99531.25;5077621;28;1588;-63
2021/11/27 03:05:56;;;;;;;;;;;;;;;15.92;63.76;99544.72;5077086;28;1017;-71
2021/11/27 03:08:22;;;;;;;;;;;;;;;15.93;64.65;99566.88;5077596;28;1016;-64
2021/11/27 03:10:49;;;;;;;;;;;;;;;15.91;64.83;99533.19;5078068;28;918;-72
2021/11/27 03:13:17;;;;;;;;;;;;;;;15.91;64.68;99559.84;5077945;28;1020;-72
2021/11/27 03:15:43;;;;;;;;;;;;;;;15.91;65.30;99570.53;5077970;28;750;-71
2021/11/27 03:18:10;;;;;;;;;;;;;;;15.89;64.09;99569.81;5077928;28;1041;-64
2021/11/27 03:20:37;;;;;;;;;;;;;;;15.90;64.22;99568.84;5077375;28;1906;-63
2021/11/27 03:23:04;;;;;;;;;;;;;;;15.89;64.59;99567.16;5077486;28;1056;-72
2021/11/27 03:25:31;;;;;;;;;;;;;;;15.93;63.85;99577.53;5077483;28;1071;-64
2021/11/27 03:27:57;;;;;;;;;;;;;;;15.90;65.26;99573.34;5077427;28;1048;-71
2021/11/27 03:30:25;;;;;;;;;;;;;;;15.89;64.97;99572.50;5077750;28;1068;-72
2021/11/27 03:32:52;;;;;;;;;;;;;;;15.90;64.33;99576.84;5077501;28;1095;-67
2021/11/27 03:35:18;;;;;;;;;;;;;;;15.88;64.55;99584.16;5077332;28;984;-63
2021/11/27 03:37:45;;;;;;;;;;;;;;;15.89;65.14;99574.31;5077546;28;942;-72
2021/11/27 03:40:12;;;;;;;;;;;;;;;15.89;64.79;99563.66;5077235;28;1000;-63
2021/11/27 03:42:39;;;;;;;;;;;;;;;15.87;64.17;99569.13;5077428;28;1906;-72
2021/11/27 03:45:07;;;;;;;;;;;;;;;15.86;63.73;99596.78;5076392;28;1064;-63
2021/11/27 03:47:34;;;;;;;;;;;;;;;15.88;63.67;99596.66;5077383;28;976;-64
2021/11/27 03:50:01;;;;;;;;;;;;;;;15.86;63.86;99588.78;5077322;28;993;-71
2021/11/27 03:52:27;;;;;;;;;;;;;;;15.86;63.91;99567.47;5077008;28;1044;-63
2021/11/27 03:54:54;;;;;;;;;;;;;;;15.85;65.24;99548.94;5077280;28;1017;-72
2021/11/27 03:57:20;;;;;;;;;;;;;;;15.84;63.89;99564.09;5077270;28;981;-72
2021/11/27 03:59:47;;;;;;;;;;;;;;;15.86;65.01;99572.78;5076903;28;1040;-71
2021/11/27 04:02:13;;;;;;;;;;;;;;;15.87;65.31;99569.13;5076862;28;1906;-63
2021/11/27 04:04:42;;;;;;;;;;;;;;;15.85;63.87;99576.44;5076873;28;1094;-72
2021/11/27 04:07:09;;;;;;;;;;;;;;;15.84;64.72;99557.94;5076789;28;1070;-72
2021/11/27 04:09:35;;;;;;;;;;;;;;;15.83;64.74;99550.91;5076897;28;962;-63
2021/11/27 04:12:02;;;;;;;;;;;;;;;15.84;64.67;99556.09;5076972;28;999;-71
2021/11/27 04:14:28;;;;;;;;;;;;;;;15.85;63.66;99548.94;5076645;28;1055;-63
2021/11/27 04:16:55;;;;;;;;;;;;;;;15.84;64.21;99553.44;5076818;28;999;-63
2021/11/27 04:19:21;;;;;;;;;;;;;;;15.85;64.83;99560.44;5076888;28;1045;-72
2021/11/27 04:21:49;;;;;;;;;;;;;;;15.84;64.67;99561.44;5076696;28;1975;-63
2021/11/27 04:24:15;;;;;;;;;;;;;;;15.81;64.90;99545.72;5076571;28;1056;-63
2021/11/27 04:26:42;;;;;;;;;;;;;;;15.85;63.80;99564.94;5076397;28;1063;-72
2021/11/27 04:29:08;;;;;;;;;;;;;;;15.82;65.07;99558.06;5076282;28;1032;-63
2021/11/27 04:31:35;;;;;;;;;;;;;;;15.80;64.53;99544.06;5076294;28;1037;-72
2021/11/27 04:34:02;;;;;;;;;;;;;;;15.83;63.63;99554.41;5076197;28;1107;-64
2021/11/27 04:36:29;;;;;;;;;;;;;;;15.80;64.63;99557.38;5076465;28;1055;-72
2021/11/27 04:38:57;;;;;;;;;;;;;;;15.80;64.94;99551.22;5076157;28;1013;-63
2021/11/27 04:41:23;;;;;;;;;;;;;;;15.81;64.60;99547.56;5076561;28;1972;-72
2021/11/27 04:43:50;;;;;;;;;;;;;;;15.80;64.61;99541.38;5075958;28;1020;-71
2021/11/27 04:46:16;;;;;;;;;;;;;;;15.79;63.78;99562.84;5074878;28;1092;-63
2021/11/27 04:48:43;;;;;;;;;;;;;;;15.80;64.59;99553.88;5075697;28;971;-71
2021/11/27 04:51:09;;;;;;;;;;;;;;;15.77;64.80;99540.81;5075581;28;1056;-63
2021/11/27 04:53:35;;;;;;;;;;;;;;;15.80;64.40;99546.72;5076037;28;1036;-71
2021/11/27 04:56:03;;;;;;;;;;;;;;;15.79;64.98;99561.00;5075995;28;995;-63
2021/11/27 04:58:30;;;;;;;;;;;;;;;15.76;64.04;99566.66;5075901;28;984;-71
2021/11/27 05:00:59;;;;;;;;;;;;;;;15.79;63.77;99566.34;5075418;28;1152;-71
2021/11/27 05:03:26;;;;;;;;;;;;;;;15.78;64.95;99562.03;5075319;28;1902;-63
2021/11/27 05:05:52;;;;;;;;;;;;;;;15.75;63.91;99554.28;5075818;28;981;-69
2021/11/27 05:08:19;;;;;;;;;;;;;;;15.78;63.75;99559.34;5075755;28;1274;-72
2021/11/27 05:10:45;;;;;;;;;;;;;;;15.76;63.84;99555.16;5075234;28;1059;-71
2021/11/27 05:13:13;;;;;;;;;;;;;;;15.74;64.94;99541.97;5075330;28;1111;-64
2021/11/27 05:15:41;;;;;;;;;;;;;;;15.75;64.86;99542.81;5075530;28;1028;-71
2021/11/27 05:18:08;;;;;;;;;;;;;;;15.75;64.72;99548.97;5075611;28;1057;-63
2021/11/27 05:20:35;;;;;;;;;;;;;;;15.74;65.21;99552.63;5074970;28;1083;-71
2021/11/27 05:23:01;;;;;;;;;;;;;;;15.73;65.14;99552.75;5075433;28;1902;-71
2021/11/27 05:25:28;;;;;;;;;;;;;;;15.77;64.95;99563.00;5075512;28;1065;-72
2021/11/27 05:27:54;;;;;;;;;;;;;;;15.75;64.82;99558.78;5074974;28;1204;-63
2021/11/27 05:30:22;;;;;;;;;;;;;;;15.75;65.11;99564.13;5075199;28;1098;-63
2021/11/27 05:33:07;;;;;;;;;;;;;;;15.75;64.90;99572.13;5075211;28;1008;-63
2021/11/27 05:35:34;;;;;;;;;;;;;;;15.74;64.47;99579.28;5074957;28;1004;-63
2021/11/27 05:38:01;;;;;;;;;;;;;;;15.74;65.16;99584.63;5075613;28;1025;-63
2021/11/27 05:40:27;;;;;;;;;;;;;;;15.73;63.70;99590.91;5075236;28;964;-71
2021/11/27 05:42:54;;;;;;;;;;;;;;;15.73;63.94;99587.41;5074918;28;1905;-63
2021/11/27 05:45:27;;;;;;;;;;;;;;;15.71;63.88;99585.69;5075056;28;981;-71
2021/11/27 05:47:53;;;;;;;;;;;;;;;15.75;64.42;99601.44;5075152;28;1024;-63
2021/11/27 05:50:20;;;;;;;;;;;;;;;15.73;64.37;99596.25;5075099;28;1061;-72
2021/11/27 05:52:46;;;;;;;;;;;;;;;15.74;65.00;99599.75;5075163;28;955;-63
2021/11/27 05:55:13;;;;;;;;;;;;;;;15.71;65.00;99590.19;5075065;28;1479;-71
2021/11/27 05:57:39;;;;;;;;;;;;;;;15.70;63.96;99588.53;5074478;28;1043;-71
2021/11/27 06:00:07;;;;;;;;;;;;;;;15.69;64.03;99602.81;5074814;28;1106;-63
2021/11/27 06:02:34;;;;;;;;;;;;;;;15.68;64.50;99595.81;5074577;28;1910;-71
2021/11/27 06:05:01;;;;;;;;;;;;;;;15.72;64.76;99607.88;5074968;28;1019;-72
2021/11/27 06:07:27;;;;;;;;;;;;;;;15.71;63.80;99614.16;5075015;28;1006;-63
2021/11/27 06:09:54;;;;;;;;;;;;;;;15.68;64.87;99598.47;5074363;28;995;-63
2021/11/27 06:12:20;;;;;;;;;;;;;;;15.70;65.28;99609.84;5075178;28;987;-63
2021/11/27 06:14:47;;;;;;;;;;;;;;;15.71;65.09;99632.81;5074637;28;1086;-63
2021/11/27 06:17:13;;;;;;;;;;;;;;;15.71;65.14;99627.50;5074577;28;1100;-72
2021/11/27 06:19:41;;;;;;;;;;;;;;;15.68;64.50;99625.13;5074901;28;974;-63
2021/11/27 06:22:07;;;;;;;;;;;;;;;15.67;64.83;99626.94;5074370;28;1910;-72
2021/11/27 06:24:34;;;;;;;;;;;;;;;15.67;64.14;99636.75;5074776;28;1038;-63
2021/11/27 06:27:01;;;;;;;;;;;;;;;15.69;65.31;99640.97;5074461;28;1075;-72
2021/11/27 06:29:27;;;;;;;;;;;;;;;15.65;64.19;99634.22;5074718;28;1711;-63
2021/11/27 06:31:54;;;;;;;;;;;;;;;15.66;65.28;99641.25;5074454;28;969;-71
2021/11/27 06:34:20;;;;;;;;;;;;;;;15.66;64.08;99648.41;5074652;28;1044;-63
2021/11/27 06:36:48;;;;;;;;;;;;;;;15.67;65.21;99642.09;5074324;28;1040;-63
2021/11/27 06:39:14;;;;;;;;;;;;;;;15.68;65.28;99638.47;5074618;28;966;-63
2021/11/27 06:41:41;;;;;;;;;;;;;;;15.68;65.21;99651.78;5074548;28;1975;-74
2021/11/27 06:44:07;;;;;;;;;;;;;;;15.66;64.71;99635.09;5073551;28;1028;-71
2021/11/27 06:46:34;;;;;;;;;;;;;;;15.66;65.05;99651.91;5073357;28;996;-64
2021/11/27 06:49:00;;;;;;;;;;;;;;;15.67;65.10;99639.44;5074260;28;1040;-63
2021/11/27 06:51:27;;;;;;;;;;;;;;;15.66;64.84;99651.09;5074288;28;1070;-63
2021/11/27 06:53:55;;;;;;;;;;;;;;;15.65;64.29;99652.06;5074550;28;943;-71
2021/11/27 06:56:21;;;;;;;;;;;;;;;15.63;63.87;99654.00;5074165;28;1028;-63
2021/11/27 06:58:48;;;;;;;;;;;;;;;15.66;65.07;99646.59;5074233;28;1037;-63
2021/11/27 07:01:14;;;;;;;;;;;;;;;15.65;64.76;99649.38;5073967;28;1085;-63
2021/11/27 07:03:41;;;;;;;;;;;;;;;15.64;64.48;99653.03;5074076;28;1906;-63
2021/11/27 07:06:07;;;;;;;;;;;;;;;15.64;64.87;99658.38;5074368;28;1011;-72
2021/11/27 07:08:34;;;;;;;;;;;;;;;15.66;64.73;99667.06;5074393;28;993;-64
2021/11/27 07:11:01;;;;;;;;;;;;;;;15.65;65.23;99663.53;5074060;28;1110;-63
2021/11/27 07:13:28;;;;;;;;;;;;;;;15.66;65.19;99662.56;5074006;28;1060;-63
2021/11/27 07:15:54;;;;;;;;;;;;;;;15.65;63.68;99670.72;5074037;28;1032;-71
2021/11/27 07:18:21;;;;;;;;;;;;;;;15.68;65.07;99665.09;5074028;28;1186;-63
2021/11/27 07:20:47;;;;;;;;;;;;;;;15.65;64.66;99676.03;5076655;28;1083;-72
2021/11/27 07:23:14;;;;;;;;;;;;;;;15.64;64.03;99677.03;5077488;28;1905;-64
2021/11/27 07:25:40;;;;;;;;;;;;;;;15.65;63.68;99682.19;5077569;28;1080;-71
2021/11/27 07:28:09;;;;;;;;;;;;;;;15.65;63.78;99686.69;5077510;28;1071;-63
2021/11/27 07:30:36;;;;;;;;;;;;;;;15.64;65.33;99690.34;5077648;28;964;-71
2021/11/27 07:33:02;;;;;;;;;;;;;;;15.64;65.11;99691.19;5077542;28;982;-63
2021/11/27 07:35:29;;;;;;;;;;;;;;;15.62;64.86;99687.00;5077662;28;970;-63
2021/11/27 07:37:55;;;;;;;;;;;;;;;15.55;64.94;99676.03;5077364;28;1049;-71
2021/11/27 07:40:22;;;;;;;;;;;;;;;15.64;63.80;99682.38;5077322;28;1055;-71
2021/11/27 07:42:50;;;;;;;;;;;;;;;15.62;64.90;99687.00;5077132;28;1983;-64
2021/11/27 07:45:18;;;;;;;;;;;;;;;15.66;64.94;99683.06;5077161;28;909;-63
2021/11/27 07:47:44;;;;;;;;;;;;;;;15.63;64.89;99667.34;5077476;28;963;-72
2021/11/27 07:50:11;;;;;;;;;;;;;;;15.62;65.04;99668.34;5077476;28;1010;-63
2021/11/27 07:52:38;;;;;;;;;;;;;;;15.64;65.42;99663.72;5077354;28;1053;-72
2021/11/27 07:55:05;;;;;;;;;;;;;;;15.66;64.43;99670.56;5077063;28;1090;-72
2021/11/27 07:57:31;;;;;;;;;;;;;;;15.68;64.34;99665.09;5074037;28;1538;-71
2021/11/27 07:59:57;;;;;;;;;;;;;;;15.65;64.44;99660.88;5070582;28;1040;-63
2021/11/27 08:02:25;;;;;;;;;;;;;;;15.66;64.85;99659.91;5076674;28;1905;-71
2021/11/27 08:04:52;;;;;;;;;;;;;;;15.65;63.76;99652.06;5076699;28;1032;-71
2021/11/27 08:07:18;;;;;;;;;;;;;;;15.66;64.82;99665.25;5076820;28;995;-70
2021/11/27 08:09:45;;;;;;;;;;;;;;;15.64;63.74;99650.38;5077013;28;984;-63
2021/11/27 08:12:11;;;;;;;;;;;;;;;15.68;64.60;99651.78;5076778;28;1043;-63
2021/11/27 08:14:38;;;;;;;;;;;;;;;15.69;64.62;99659.59;5076699;28;1051;-63
2021/11/27 08:17:04;;;;;;;;;;;;;;;15.69;64.07;99656.13;5063053;28;1047;-72
2021/11/27 08:19:32;;;;;;;;;;;;;;;15.71;65.29;99654.97;5066223;28;1384;-72
2021/11/27 08:21:58;;;;;;;;;;;;;;;15.74;64.67;99661.03;5075572;28;977;-72
2021/11/27 08:24:26;;;;;;;;;;;;;;;15.72;64.50;99655.84;5074862;28;1902;-63
2021/11/27 08:26:53;;;;;;;;;;;;;;;15.73;63.88;99657.53;5076655;28;968;-71
2021/11/27 08:29:19;;;;;;;;;;;;;;;15.72;64.76;99653.19;5076568;28;1056;-71
2021/11/27 08:31:47;;;;;;;;;;;;;;;15.73;64.86;99652.22;5075801;28;1145;-64
2021/11/27 08:34:14;;;;;;;;;;;;;;;15.73;65.23;99657.53;5076221;28;1032;-71
2021/11/27 08:36:42;;;;;;;;;;;;;;;15.74;64.93;99648.59;5076194;28;1056;-63
2021/11/27 08:39:08;;;;;;;;;;;;;;;15.72;65.24;99655.84;5076201;28;1052;-71
2021/11/27 08:41:35;;;;;;;;;;;;;;;15.73;65.24;99668.22;5076091;28;1079;-63
2021/11/27 08:44:01;;;;;;;;;;;;;;;15.72;63.77;99666.50;5076139;28;1973;-63
2021/11/27 08:46:28;;;;;;;;;;;;;;;15.78;65.17;99657.97;5076044;28;1055;-71
2021/11/27 08:48:54;;;;;;;;;;;;;;;15.74;64.32;99653.91;5076267;28;1628;-63
2021/11/27 08:51:21;;;;;;;;;;;;;;;15.74;64.96;99658.38;5076256;28;1060;-63
2021/11/27 08:53:49;;;;;;;;;;;;;;;15.75;63.88;99654.75;5075824;28;1091;-72
2021/11/27 08:56:15;;;;;;;;;;;;;;;15.74;63.78;99651.25;5076139;28;1032;-71
2021/11/27 08:58:42;;;;;;;;;;;;;;;15.75;64.69;99639.59;5075689;28;1629;-71
2021/11/27 09:01:09;;;;;;;;;;;;;;;15.79;64.07;99640.97;5075747;28;1194;-71
2021/11/27 09:03:36;;;;;;;;;;;;;;;15.76;64.78;99630.63;5075506;28;1983;-63
2021/11/27 09:06:03;;;;;;;;;;;;;;;15.77;64.30;99634.94;5075732;28;1067;-71
2021/11/27 09:08:30;;;;;;;;;;;;;;;15.73;65.21;99624.72;5075583;28;961;-71
2021/11/27 09:10:58;;;;;;;;;;;;;;;15.76;64.38;99624.47;5075440;28;1072;-71
2021/11/27 09:13:24;;;;;;;;;;;;;;;15.78;64.58;99628.66;5075748;28;1048;-71
2021/11/27 09:15:51;;;;;;;;;;;;;;;15.78;64.04;99631.31;5075731;28;968;-71
2021/11/27 09:18:17;;;;;;;;;;;;;;;15.82;65.17;99632.72;5075606;28;1055;-63
2021/11/27 09:20:44;;;;;;;;;;;;;;;15.80;65.17;99631.19;5075670;28;1053;-71
2021/11/27 09:23:10;;;;;;;;;;;;;;;15.81;65.07;99623.03;5075538;28;1905;-63
2021/11/27 09:25:37;;;;;;;;;;;;;;;15.81;63.94;99630.19;5075262;28;1063;-71
2021/11/27 09:28:05;;;;;;;;;;;;;;;15.80;64.73;99621.34;5075553;28;1091;-71
2021/11/27 09:30:32;;;;;;;;;;;;;;;15.80;64.38;99610.69;5075518;28;1038;-71
2021/11/27 09:32:58;;;;;;;;;;;;;;;15.77;64.17;99605.63;5075299;28;1079;-63
2021/11/27 09:35:25;;;;;;;;;;;;;;;15.81;65.17;99623.03;5075477;28;1024;-71
2021/11/27 09:37:52;;;;;;;;;;;;;;;15.80;64.85;99616.03;5075028;28;1070;-71
2021/11/27 09:40:18;;;;;;;;;;;;;;;15.83;63.97;99631.72;5075316;28;1043;-63
2021/11/27 09:42:45;;;;;;;;;;;;;;;15.82;64.10;99619.38;5074517;28;1909;-72
2021/11/27 09:45:13;;;;;;;;;;;;;;;15.85;64.04;99631.56;5074600;28;1023;-63
2021/11/27 09:47:40;;;;;;;;;;;;;;;15.82;65.11;99630.06;5075232;28;991;-71
2021/11/27 09:50:08;;;;;;;;;;;;;;;15.84;64.12;99635.25;5075239;28;1036;-63
2021/11/27 09:52:34;;;;;;;;;;;;;;;15.85;64.13;99636.91;5075191;28;1079;-63
2021/11/27 09:55:02;;;;;;;;;;;;;;;15.83;65.00;99637.03;5074803;28;1023;-63
2021/11/27 09:57:28;;;;;;;;;;;;;;;15.84;64.45;99636.06;5074563;28;1079;-72
2021/11/27 09:59:55;;;;;;;;;;;;;;;15.88;64.21;99632.16;5074796;28;1039;-71
2021/11/27 10:02:23;;;;;;;;;;;;;;;15.92;63.75;99614.03;5074657;28;1364;-63
2021/11/27 10:04:51;;;;;;;;;;;;;;;15.91;64.23;99618.50;5074956;28;2430;-63
2021/11/27 10:07:17;;;;;;;;;;;;;;;15.89;64.83;99625.81;5074891;28;1439;-63
2021/11/27 10:09:45;;;;;;;;;;;;;;;15.87;64.93;99609.13;5074962;28;1052;-63
2021/11/27 10:12:12;;;;;;;;;;;;;;;15.86;64.86;99620.78;5074585;28;1099;-63
2021/11/27 10:14:39;;;;;;;;;;;;;;;15.87;64.42;99617.13;5074855;28;1020;-72
2021/11/27 10:17:09;;;;;;;;;;;;;;;15.85;64.61;99611.09;5074877;28;976;-63
2021/11/27 10:19:48;;;;;;;;;;;;;;;15.84;65.19;99606.75;5074597;28;1095;-71
2021/11/27 10:22:16;;;;;;;;;;;;;;;15.94;64.42;99619.25;5074504;28;1024;-72
2021/11/27 10:24:46;;;;;;;;;;;;;;;15.93;64.00;99614.88;5074444;28;1973;-63
2021/11/27 10:27:17;;;;;;;;;;;;;;;15.89;63.93;99612.47;5074811;28;1651;-71
2021/11/27 10:29:44;;;;;;;;;;;;;;;15.98;63.56;99623.28;5074733;28;1039;-63
2021/11/27 10:32:12;;;;;;;;;;;;;;;15.94;65.19;99621.91;5074469;28;1032;-63
2021/11/27 10:34:39;;;;;;;;;;;;;;;15.92;65.04;99619.38;5074964;28;955;-71
2021/11/27 10:37:23;;;;;;;;;;;;;;;15.90;65.13;99621.34;5074425;28;1044;-63
2021/11/27 10:39:55;;;;;;;;;;;;;;;15.87;64.31;99641.09;5074692;28;1079;-72
2021/11/27 10:42:22;;;;;;;;;;;;;;;15.87;65.47;99638.44;5074667;28;996;-71
2021/11/27 10:44:51;;;;;;;;;;;;;;;15.86;64.23;99631.44;5074275;28;1906;-63
2021/11/27 10:47:18;;;;;;;;;;;;;;;15.87;64.19;99634.94;5074397;28;1016;-72
2021/11/27 10:49:47;;;;;;;;;;;;;;;15.89;64.42;99630.31;5074252;28;1021;-63
2021/11/27 10:52:15;;;;;;;;;;;;;;;15.88;65.13;99639.31;5074554;28;965;-63
2021/11/27 10:54:43;;;;;;;;;;;;;;;15.89;64.23;99635.66;5075369;28;1103;-71
2021/11/27 10:57:23;;;;;;;;;;;;;;;15.88;65.09;99634.81;5078041;28;1048;-63
2021/11/27 10:59:50;;;;;;;;;;;;;;;15.88;64.77;99626.81;5078331;28;1038;-63
2021/11/27 11:02:17;;;;;;;;;;;;;;;15.88;65.15;99633.97;5078101;28;1441;-72
2021/11/27 11:04:44;;;;;;;;;;;;;;;15.89;64.51;99646.31;5077872;28;1914;-71
2021/11/27 11:07:19;;;;;;;;;;;;;;;15.89;63.86;99641.81;5078133;28;973;-72
2021/11/27 11:10:00;;;;;;;;;;;;;;;15.91;64.81;99637.16;5077813;28;1086;-63
2021/11/27 11:12:32;;;;;;;;;;;;;;;15.90;64.86;99624.00;5076390;28;1482;-71
2021/11/27 11:15:06;;;;;;;;;;;;;;;15.90;63.91;99630.16;5078080;28;991;-71
2021/11/27 11:17:33;;;;;;;;;;;;;;;15.90;64.01;99632.84;5077786;28;1067;-73
2021/11/27 11:20:11;;;;;;;;;;;;;;;15.90;64.05;99616.84;5077711;28;1050;-71
2021/11/27 11:22:39;;;;;;;;;;;;;;;15.90;64.32;99630.16;5077933;28;1070;-63
2021/11/27 11:25:06;;;;;;;;;;;;;;;15.93;64.64;99630.88;5077465;28;1910;-71
2021/11/27 11:27:35;;;;;;;;;;;;;;;15.90;65.58;99626.69;5077905;28;1142;-72
2021/11/27 11:30:04;;;;;;;;;;;;;;;15.88;65.30;99616.16;5077888;28;982;-63
2021/11/27 11:32:31;;;;;;;;;;;;;;;15.88;65.42;99623.31;5077899;28;1048;-64
2021/11/27 11:34:58;;;;;;;;;;;;;;;15.89;64.18;99624.97;5077358;28;1047;-63
2021/11/27 11:37:26;;;;;;;;;;;;;;;15.87;65.70;99626.94;5077670;28;1072;-63
2021/11/27 11:39:54;;;;;;;;;;;;;;;15.87;65.51;99617.13;5077608;28;971;-71
2021/11/27 11:42:24;;;;;;;;;;;;;;;15.90;64.15;99626.69;5077232;28;1305;-63
2021/11/27 11:44:51;;;;;;;;;;;;;;;15.89;65.31;99611.66;5077224;28;1899;-63
2021/11/27 11:47:17;;;;;;;;;;;;;;;15.89;64.67;99601.81;5077201;28;1078;-63
2021/11/27 11:49:44;;;;;;;;;;;;;;;15.89;64.91;99604.47;5077483;28;1004;-71
2021/11/27 11:52:16;;;;;;;;;;;;;;;15.88;64.41;99610.81;5077396;28;944;-63
2021/11/27 11:54:43;;;;;;;;;;;;;;;15.87;65.28;99613.63;5077058;28;1023;-63
2021/11/27 11:57:12;;;;;;;;;;;;;;;15.91;65.48;99623.00;5077273;28;975;-72
2021/11/27 11:59:40;;;;;;;;;;;;;;;15.91;64.99;99618.50;5077231;28;1019;-64
2021/11/27 12:02:13;;;;;;;;;;;;;;;15.90;64.63;99616.84;5076966;28;1426;-71
2021/11/27 12:04:40;;;;;;;;;;;;;;;15.90;65.61;99616.84;5076862;28;1902;-71
2021/11/27 12:07:10;;;;;;;;;;;;;;;15.89;65.47;99615.16;5075864;28;1068;-63
2021/11/27 12:10:09;;;;;;;;;;;;;;;15.88;65.32;99612.66;5077107;28;995;-64
2021/11/27 12:12:37;;;;;;;;;;;;;;;15.88;64.37;99628.66;5076552;28;1040;-63
2021/11/27 12:15:04;;;;;;;;;;;;;;;15.88;65.69;99629.47;5077240;28;1003;-71
2021/11/27 12:17:30;;;;;;;;;;;;;;;15.90;64.48;99618.69;5076835;28;1004;-72
2021/11/27 12:19:58;;;;;;;;;;;;;;;15.87;65.54;99611.78;5076940;28;1074;-63
2021/11/27 12:22:40;;;;;;;;;;;;;;;15.88;64.45;99621.47;5076825;28;1036;-63
2021/11/27 12:25:15;;;;;;;;;;;;;;;15.87;64.45;99627.78;5076334;28;1905;-63
2021/11/27 12:28:03;;;;;;;;;;;;;;;15.88;64.97;99626.81;5076743;28;1045;-71
2021/11/27 12:30:51;;;;;;;;;;;;;;;15.86;65.76;99631.44;5071466;28;1074;-63
2021/11/27 12:33:32;;;;;;;;;;;;;;;15.87;64.39;99635.78;5076228;28;1306;-63
2021/11/27 12:35:59;;;;;;;;;;;;;;;15.87;64.56;99638.44;5076341;28;1111;-71
2021/11/27 12:38:32;;;;;;;;;;;;;;;15.88;65.58;99636.66;5076257;28;1047;-63
2021/11/27 12:40:59;;;;;;;;;;;;;;;15.87;65.17;99640.28;5076504;28;960;-63
2021/11/27 12:43:26;;;;;;;;;;;;;;;15.87;65.77;99633.13;5076032;28;1102;-71
2021/11/27 12:45:56;;;;;;;;;;;;;;;15.85;64.43;99637.75;5075895;28;1898;-63
2021/11/27 12:48:38;;;;;;;;;;;;;;;15.87;64.70;99649.09;5076048;28;1000;-71
2021/11/27 12:51:21;;;;;;;;;;;;;;;15.86;65.29;99639.44;5076234;28;1072;-71
2021/11/27 12:54:03;;;;;;;;;;;;;;;15.87;65.24;99630.44;5075973;28;794;-63
2021/11/27 12:56:30;;;;;;;;;;;;;;;15.88;64.92;99644.63;5075648;28;1139;-71
2021/11/27 12:58:58;;;;;;;;;;;;;;;15.87;65.89;99641.09;5075748;28;1083;-72
2021/11/27 13:01:27;;;;;;;;;;;;;;;15.87;65.63;99625.13;5075810;28;1427;-71
2021/11/27 13:03:54;;;;;;;;;;;;;;;15.86;64.65;99636.78;5075601;28;1991;-63